sensor_id;sensor_type;location;lat;lon;timestamp;P1;durP1;ratioP1;P2;durP2;ratioP2
70532;SDS011;58088;51.186;17.130;2023-05-29T00:01:26;5.80;;;2.20;;
70532;SDS011;58088;51.186;17.130;2023-05-29T00:03:53;8.60;;;2.30;;
70532;SDS011;58088;51.186;17.130;2023-05-29T00:06:19;5.70;;;2.40;;
70532;SDS011;58088;51.186;17.130;2023-05-29T00:08:45;8.60;;;2.50;;
70532;SDS011;58088;51.186;17.130;2023-05-29T00:11:12;9.00;;;2.40;;
70532;SDS011;58088;51.186;17.130;2023-05-29T00:13:39;8.00;;;2.50;;
70532;SDS011;58088;51.186;17.130;2023-05-29T00:16:06;7.60;;;2.60;;
70532;SDS011;58088;51.186;17.130;2023-05-29T00:18:35;6.60;;;2.10;;
70532;SDS011;58088;51.186;17.130;2023-05-29T00:21:02;5.80;;;2.20;;
70532;SDS011;58088;51.186;17.130;2023-05-29T00:23:28;5.70;;;1.90;;
70532;SDS011;58088;51.186;17.130;2023-05-29T00:25:54;4.90;;;1.80;;
70532;SDS011;58088;51.186;17.130;2023-05-29T00:28:20;6.70;;;2.20;;
70532;SDS011;58088;51.186;17.130;2023-05-29T00:30:46;6.90;;;2.20;;
70532;SDS011;58088;51.186;17.130;2023-05-29T00:33:12;5.50;;;1.90;;
70532;SDS011;58088;51.186;17.130;2023-05-29T00:35:39;6.10;;;2.20;;
70532;SDS011;58088;51.186;17.130;2023-05-29T00:38:05;6.30;;;2.10;;
70532;SDS011;58088;51.186;17.130;2023-05-29T00:40:31;9.70;;;2.10;;
70532;SDS011;58088;51.186;17.130;2023-05-29T00:42:57;7.70;;;2.30;;
70532;SDS011;58088;51.186;17.130;2023-05-29T00:45:23;5.30;;;2.00;;
70532;SDS011;58088;51.186;17.130;2023-05-29T00:47:49;6.90;;;2.20;;
70532;SDS011;58088;51.186;17.130;2023-05-29T00:50:15;5.10;;;2.10;;
70532;SDS011;58088;51.186;17.130;2023-05-29T00:52:43;6.80;;;2.10;;
70532;SDS011;58088;51.186;17.130;2023-05-29T00:55:11;5.40;;;1.90;;
70532;SDS011;58088;51.186;17.130;2023-05-29T00:57:37;6.30;;;1.90;;
70532;SDS011;58088;51.186;17.130;2023-05-29T01:00:07;7.90;;;2.20;;
70532;SDS011;58088;51.186;17.130;2023-05-29T01:02:36;5.60;;;2.10;;
70532;SDS011;58088;51.186;17.130;2023-05-29T01:05:05;6.80;;;2.10;;
70532;SDS011;58088;51.186;17.130;2023-05-29T01:07:32;5.70;;;2.00;;
70532;SDS011;58088;51.186;17.130;2023-05-29T01:09:59;6.80;;;2.20;;
70532;SDS011;58088;51.186;17.130;2023-05-29T01:12:54;7.90;;;2.30;;
70532;SDS011;58088;51.186;17.130;2023-05-29T01:21:17;6.80;;;2.50;;
70532;SDS011;58088;51.186;17.130;2023-05-29T01:29:34;5.70;;;2.00;;
70532;SDS011;58088;51.186;17.130;2023-05-29T01:32:01;5.40;;;1.90;;
70532;SDS011;58088;51.186;17.130;2023-05-29T01:34:28;5.00;;;2.10;;
70532;SDS011;58088;51.186;17.130;2023-05-29T01:36:55;5.50;;;2.30;;
70532;SDS011;58088;51.186;17.130;2023-05-29T01:39:23;6.70;;;2.40;;
70532;SDS011;58088;51.186;17.130;2023-05-29T01:41:51;6.80;;;2.20;;
70532;SDS011;58088;51.186;17.130;2023-05-29T01:44:18;6.70;;;2.10;;
70532;SDS011;58088;51.186;17.130;2023-05-29T01:46:46;7.00;;;2.20;;
70532;SDS011;58088;51.186;17.130;2023-05-29T01:49:14;6.80;;;2.10;;
70532;SDS011;58088;51.186;17.130;2023-05-29T01:51:42;5.20;;;1.80;;
70532;SDS011;58088;51.186;17.130;2023-05-29T01:54:09;8.20;;;1.90;;
70532;SDS011;58088;51.186;17.130;2023-05-29T01:56:36;5.80;;;1.60;;
70532;SDS011;58088;51.186;17.130;2023-05-29T01:59:03;6.80;;;1.90;;
70532;SDS011;58088;51.186;17.130;2023-05-29T02:02:07;5.10;;;1.70;;
70532;SDS011;58088;51.186;17.130;2023-05-29T02:04:52;5.70;;;1.80;;
70532;SDS011;58088;51.186;17.130;2023-05-29T02:07:19;4.90;;;1.70;;
70532;SDS011;58088;51.186;17.130;2023-05-29T02:09:46;7.00;;;1.70;;
70532;SDS011;58088;51.186;17.130;2023-05-29T02:12:12;4.70;;;1.90;;
70532;SDS011;58088;51.186;17.130;2023-05-29T02:14:38;5.40;;;1.50;;
70532;SDS011;58088;51.186;17.130;2023-05-29T02:17:06;4.60;;;1.70;;
70532;SDS011;58088;51.186;17.130;2023-05-29T02:19:32;6.30;;;2.10;;
70532;SDS011;58088;51.186;17.130;2023-05-29T02:21:59;5.50;;;2.00;;
70532;SDS011;58088;51.186;17.130;2023-05-29T02:24:26;5.50;;;1.80;;
70532;SDS011;58088;51.186;17.130;2023-05-29T02:26:52;6.30;;;1.70;;
70532;SDS011;58088;51.186;17.130;2023-05-29T02:29:18;5.20;;;1.90;;
70532;SDS011;58088;51.186;17.130;2023-05-29T02:31:45;7.20;;;2.40;;
70532;SDS011;58088;51.186;17.130;2023-05-29T02:34:11;5.00;;;1.70;;
70532;SDS011;58088;51.186;17.130;2023-05-29T02:36:37;7.20;;;1.70;;
70532;SDS011;58088;51.186;17.130;2023-05-29T02:39:05;7.30;;;2.10;;
70532;SDS011;58088;51.186;17.130;2023-05-29T02:41:31;6.20;;;1.90;;
70532;SDS011;58088;51.186;17.130;2023-05-29T02:43:57;5.60;;;1.90;;
70532;SDS011;58088;51.186;17.130;2023-05-29T02:46:24;4.60;;;1.90;;
70532;SDS011;58088;51.186;17.130;2023-05-29T02:48:50;5.50;;;1.90;;
70532;SDS011;58088;51.186;17.130;2023-05-29T02:51:16;5.40;;;2.00;;
70532;SDS011;58088;51.186;17.130;2023-05-29T02:53:42;5.90;;;1.90;;
70532;SDS011;58088;51.186;17.130;2023-05-29T02:56:08;4.20;;;1.60;;
70532;SDS011;58088;51.186;17.130;2023-05-29T02:58:34;6.60;;;2.10;;
70532;SDS011;58088;51.186;17.130;2023-05-29T03:01:01;6.00;;;1.90;;
70532;SDS011;58088;51.186;17.130;2023-05-29T03:03:30;6.30;;;2.00;;
70532;SDS011;58088;51.186;17.130;2023-05-29T03:05:57;6.00;;;2.20;;
70532;SDS011;58088;51.186;17.130;2023-05-29T03:08:24;6.10;;;2.10;;
70532;SDS011;58088;51.186;17.130;2023-05-29T03:10:51;6.20;;;2.10;;
70532;SDS011;58088;51.186;17.130;2023-05-29T03:13:17;7.00;;;1.90;;
70532;SDS011;58088;51.186;17.130;2023-05-29T03:15:51;6.00;;;1.80;;
70532;SDS011;58088;51.186;17.130;2023-05-29T03:18:22;6.10;;;2.00;;
70532;SDS011;58088;51.186;17.130;2023-05-29T03:20:49;4.80;;;1.70;;
70532;SDS011;58088;51.186;17.130;2023-05-29T03:23:15;7.00;;;1.70;;
70532;SDS011;58088;51.186;17.130;2023-05-29T03:25:42;4.70;;;1.70;;
70532;SDS011;58088;51.186;17.130;2023-05-29T03:28:08;3.90;;;1.40;;
70532;SDS011;58088;51.186;17.130;2023-05-29T03:30:35;4.90;;;1.70;;
70532;SDS011;58088;51.186;17.130;2023-05-29T03:33:02;4.90;;;1.60;;
70532;SDS011;58088;51.186;17.130;2023-05-29T03:35:43;7.80;;;2.10;;
70532;SDS011;58088;51.186;17.130;2023-05-29T03:38:10;7.40;;;1.70;;
70532;SDS011;58088;51.186;17.130;2023-05-29T03:40:36;5.20;;;1.80;;
70532;SDS011;58088;51.186;17.130;2023-05-29T03:43:03;5.50;;;1.70;;
70532;SDS011;58088;51.186;17.130;2023-05-29T03:45:29;7.60;;;1.60;;
70532;SDS011;58088;51.186;17.130;2023-05-29T03:47:59;5.90;;;1.90;;
70532;SDS011;58088;51.186;17.130;2023-05-29T03:50:25;5.50;;;1.60;;
70532;SDS011;58088;51.186;17.130;2023-05-29T03:52:51;5.20;;;1.80;;
70532;SDS011;58088;51.186;17.130;2023-05-29T03:55:17;4.10;;;1.60;;
70532;SDS011;58088;51.186;17.130;2023-05-29T03:57:44;5.70;;;1.70;;
70532;SDS011;58088;51.186;17.130;2023-05-29T04:00:12;7.90;;;2.40;;
70532;SDS011;58088;51.186;17.130;2023-05-29T04:02:45;7.50;;;2.10;;
70532;SDS011;58088;51.186;17.130;2023-05-29T04:05:11;8.00;;;2.40;;
70532;SDS011;58088;51.186;17.130;2023-05-29T04:07:40;6.40;;;2.30;;
70532;SDS011;58088;51.186;17.130;2023-05-29T04:10:08;5.60;;;2.20;;
70532;SDS011;58088;51.186;17.130;2023-05-29T04:12:35;6.20;;;2.10;;
70532;SDS011;58088;51.186;17.130;2023-05-29T04:15:03;7.20;;;2.40;;
70532;SDS011;58088;51.186;17.130;2023-05-29T04:17:30;7.40;;;2.70;;
70532;SDS011;58088;51.186;17.130;2023-05-29T04:19:56;7.70;;;2.40;;
70532;SDS011;58088;51.186;17.130;2023-05-29T04:22:23;9.80;;;3.40;;
70532;SDS011;58088;51.186;17.130;2023-05-29T04:24:49;7.10;;;3.00;;
70532;SDS011;58088;51.186;17.130;2023-05-29T04:27:16;7.40;;;3.00;;
70532;SDS011;58088;51.186;17.130;2023-05-29T04:29:43;8.20;;;3.00;;
70532;SDS011;58088;51.186;17.130;2023-05-29T04:32:09;10.10;;;2.90;;
70532;SDS011;58088;51.186;17.130;2023-05-29T04:34:38;7.50;;;3.00;;
70532;SDS011;58088;51.186;17.130;2023-05-29T04:37:11;6.90;;;3.10;;
70532;SDS011;58088;51.186;17.130;2023-05-29T04:39:39;6.90;;;3.00;;
70532;SDS011;58088;51.186;17.130;2023-05-29T04:42:06;7.60;;;3.00;;
70532;SDS011;58088;51.186;17.130;2023-05-29T04:44:34;6.40;;;3.00;;
70532;SDS011;58088;51.186;17.130;2023-05-29T04:47:00;8.90;;;3.00;;
70532;SDS011;58088;51.186;17.130;2023-05-29T04:49:29;6.80;;;3.30;;
70532;SDS011;58088;51.186;17.130;2023-05-29T04:51:56;8.30;;;3.50;;
70532;SDS011;58088;51.186;17.130;2023-05-29T04:54:26;7.90;;;3.20;;
70532;SDS011;58088;51.186;17.130;2023-05-29T04:56:53;7.50;;;3.50;;
70532;SDS011;58088;51.186;17.130;2023-05-29T04:59:19;7.00;;;3.20;;
70532;SDS011;58088;51.186;17.130;2023-05-29T05:01:46;7.20;;;3.30;;
70532;SDS011;58088;51.186;17.130;2023-05-29T05:04:13;5.40;;;2.90;;
70532;SDS011;58088;51.186;17.130;2023-05-29T05:06:39;7.70;;;3.50;;
70532;SDS011;58088;51.186;17.130;2023-05-29T05:09:05;7.70;;;3.10;;
70532;SDS011;58088;51.186;17.130;2023-05-29T05:11:32;7.40;;;2.90;;
70532;SDS011;58088;51.186;17.130;2023-05-29T05:13:58;7.60;;;3.00;;
70532;SDS011;58088;51.186;17.130;2023-05-29T05:16:24;9.20;;;3.50;;
70532;SDS011;58088;51.186;17.130;2023-05-29T05:18:50;7.30;;;3.40;;
70532;SDS011;58088;51.186;17.130;2023-05-29T05:21:17;5.40;;;3.20;;
70532;SDS011;58088;51.186;17.130;2023-05-29T05:23:45;8.30;;;3.30;;
70532;SDS011;58088;51.186;17.130;2023-05-29T05:26:12;6.50;;;3.10;;
70532;SDS011;58088;51.186;17.130;2023-05-29T05:28:38;6.10;;;3.40;;
70532;SDS011;58088;51.186;17.130;2023-05-29T05:31:05;9.80;;;3.50;;
70532;SDS011;58088;51.186;17.130;2023-05-29T05:33:33;7.80;;;3.30;;
70532;SDS011;58088;51.186;17.130;2023-05-29T05:35:59;6.10;;;3.30;;
70532;SDS011;58088;51.186;17.130;2023-05-29T05:38:25;6.70;;;3.40;;
70532;SDS011;58088;51.186;17.130;2023-05-29T05:40:51;5.80;;;3.00;;
70532;SDS011;58088;51.186;17.130;2023-05-29T05:43:22;9.00;;;3.80;;
70532;SDS011;58088;51.186;17.130;2023-05-29T05:46:04;9.60;;;3.30;;
70532;SDS011;58088;51.186;17.130;2023-05-29T05:48:31;10.60;;;3.10;;
70532;SDS011;58088;51.186;17.130;2023-05-29T05:50:58;7.10;;;3.20;;
70532;SDS011;58088;51.186;17.130;2023-05-29T05:53:24;6.60;;;2.70;;
70532;SDS011;58088;51.186;17.130;2023-05-29T05:55:50;6.10;;;3.10;;
70532;SDS011;58088;51.186;17.130;2023-05-29T05:58:17;7.20;;;3.20;;
70532;SDS011;58088;51.186;17.130;2023-05-29T06:00:43;6.90;;;3.10;;
70532;SDS011;58088;51.186;17.130;2023-05-29T06:03:09;6.90;;;3.00;;
70532;SDS011;58088;51.186;17.130;2023-05-29T06:05:52;6.30;;;3.10;;
70532;SDS011;58088;51.186;17.130;2023-05-29T06:08:20;7.30;;;3.10;;
70532;SDS011;58088;51.186;17.130;2023-05-29T06:10:46;6.50;;;3.00;;
70532;SDS011;58088;51.186;17.130;2023-05-29T06:13:13;7.40;;;3.00;;
70532;SDS011;58088;51.186;17.130;2023-05-29T06:15:45;8.00;;;2.90;;
70532;SDS011;58088;51.186;17.130;2023-05-29T06:18:11;8.10;;;3.00;;
70532;SDS011;58088;51.186;17.130;2023-05-29T06:20:37;6.90;;;3.00;;
70532;SDS011;58088;51.186;17.130;2023-05-29T06:23:04;5.20;;;3.10;;
70532;SDS011;58088;51.186;17.130;2023-05-29T06:25:30;9.10;;;3.10;;
70532;SDS011;58088;51.186;17.130;2023-05-29T06:28:02;7.90;;;3.10;;
70532;SDS011;58088;51.186;17.130;2023-05-29T06:30:31;6.80;;;2.70;;
70532;SDS011;58088;51.186;17.130;2023-05-29T06:32:58;4.80;;;2.30;;
70532;SDS011;58088;51.186;17.130;2023-05-29T06:35:29;5.70;;;2.50;;
70532;SDS011;58088;51.186;17.130;2023-05-29T06:37:55;6.30;;;2.70;;
70532;SDS011;58088;51.186;17.130;2023-05-29T06:40:22;9.80;;;2.50;;
70532;SDS011;58088;51.186;17.130;2023-05-29T06:42:48;5.70;;;2.50;;
70532;SDS011;58088;51.186;17.130;2023-05-29T06:45:15;6.20;;;2.20;;
70532;SDS011;58088;51.186;17.130;2023-05-29T06:47:42;6.30;;;2.30;;
70532;SDS011;58088;51.186;17.130;2023-05-29T06:50:09;6.00;;;2.40;;
70532;SDS011;58088;51.186;17.130;2023-05-29T06:52:36;7.10;;;2.60;;
70532;SDS011;58088;51.186;17.130;2023-05-29T06:55:31;6.20;;;2.70;;
70532;SDS011;58088;51.186;17.130;2023-05-29T06:57:57;6.10;;;2.40;;
70532;SDS011;58088;51.186;17.130;2023-05-29T07:00:25;7.60;;;2.50;;
70532;SDS011;58088;51.186;17.130;2023-05-29T07:03:00;9.20;;;2.50;;
70532;SDS011;58088;51.186;17.130;2023-05-29T07:05:26;7.40;;;2.60;;
70532;SDS011;58088;51.186;17.130;2023-05-29T07:07:58;8.80;;;2.60;;
70532;SDS011;58088;51.186;17.130;2023-05-29T07:10:24;7.60;;;2.50;;
70532;SDS011;58088;51.186;17.130;2023-05-29T07:12:51;6.70;;;2.40;;
70532;SDS011;58088;51.186;17.130;2023-05-29T07:15:17;6.00;;;2.30;;
70532;SDS011;58088;51.186;17.130;2023-05-29T07:17:44;4.10;;;1.90;;
70532;SDS011;58088;51.186;17.130;2023-05-29T07:20:18;6.00;;;2.40;;
70532;SDS011;58088;51.186;17.130;2023-05-29T07:22:47;8.10;;;2.10;;
70532;SDS011;58088;51.186;17.130;2023-05-29T07:25:14;6.90;;;2.40;;
70532;SDS011;58088;51.186;17.130;2023-05-29T07:27:40;5.30;;;2.30;;
70532;SDS011;58088;51.186;17.130;2023-05-29T07:30:07;4.50;;;1.50;;
70532;SDS011;58088;51.186;17.130;2023-05-29T07:32:34;4.10;;;1.70;;
70532;SDS011;58088;51.186;17.130;2023-05-29T07:35:00;4.40;;;1.60;;
70532;SDS011;58088;51.186;17.130;2023-05-29T07:37:27;4.00;;;1.80;;
70532;SDS011;58088;51.186;17.130;2023-05-29T07:39:53;5.60;;;1.70;;
70532;SDS011;58088;51.186;17.130;2023-05-29T07:42:38;5.50;;;1.70;;
70532;SDS011;58088;51.186;17.130;2023-05-29T07:45:04;4.30;;;1.60;;
70532;SDS011;58088;51.186;17.130;2023-05-29T07:47:31;4.50;;;1.70;;
70532;SDS011;58088;51.186;17.130;2023-05-29T07:49:57;4.70;;;1.80;;
70532;SDS011;58088;51.186;17.130;2023-05-29T07:52:24;4.10;;;1.60;;
70532;SDS011;58088;51.186;17.130;2023-05-29T07:54:52;3.70;;;1.40;;
70532;SDS011;58088;51.186;17.130;2023-05-29T07:57:18;4.20;;;1.50;;
70532;SDS011;58088;51.186;17.130;2023-05-29T07:59:45;4.20;;;1.50;;
70532;SDS011;58088;51.186;17.130;2023-05-29T08:02:15;7.10;;;1.40;;
70532;SDS011;58088;51.186;17.130;2023-05-29T08:04:49;4.20;;;1.40;;
70532;SDS011;58088;51.186;17.130;2023-05-29T08:07:15;3.60;;;1.60;;
70532;SDS011;58088;51.186;17.130;2023-05-29T08:09:42;4.90;;;1.30;;
70532;SDS011;58088;51.186;17.130;2023-05-29T08:12:08;5.50;;;1.50;;
70532;SDS011;58088;51.186;17.130;2023-05-29T08:14:35;6.00;;;1.50;;
70532;SDS011;58088;51.186;17.130;2023-05-29T08:17:02;5.20;;;1.50;;
70532;SDS011;58088;51.186;17.130;2023-05-29T08:19:28;5.00;;;1.40;;
70532;SDS011;58088;51.186;17.130;2023-05-29T08:21:54;3.90;;;1.00;;
70532;SDS011;58088;51.186;17.130;2023-05-29T08:24:21;6.50;;;1.60;;
70532;SDS011;58088;51.186;17.130;2023-05-29T08:26:47;4.10;;;1.50;;
70532;SDS011;58088;51.186;17.130;2023-05-29T08:29:13;4.70;;;1.50;;
70532;SDS011;58088;51.186;17.130;2023-05-29T08:31:39;4.60;;;1.40;;
70532;SDS011;58088;51.186;17.130;2023-05-29T08:34:05;6.10;;;1.50;;
70532;SDS011;58088;51.186;17.130;2023-05-29T08:36:33;3.20;;;1.50;;
70532;SDS011;58088;51.186;17.130;2023-05-29T08:38:59;3.80;;;1.50;;
70532;SDS011;58088;51.186;17.130;2023-05-29T08:41:37;3.40;;;1.60;;
70532;SDS011;58088;51.186;17.130;2023-05-29T08:44:14;6.70;;;1.60;;
70532;SDS011;58088;51.186;17.130;2023-05-29T08:46:44;4.60;;;1.50;;
70532;SDS011;58088;51.186;17.130;2023-05-29T08:49:14;6.80;;;1.80;;
70532;SDS011;58088;51.186;17.130;2023-05-29T08:51:47;5.20;;;1.90;;
70532;SDS011;58088;51.186;17.130;2023-05-29T08:54:16;8.10;;;2.20;;
70532;SDS011;58088;51.186;17.130;2023-05-29T08:56:42;7.80;;;2.80;;
70532;SDS011;58088;51.186;17.130;2023-05-29T08:59:09;5.40;;;2.00;;
70532;SDS011;58088;51.186;17.130;2023-05-29T09:01:38;5.80;;;1.80;;
70532;SDS011;58088;51.186;17.130;2023-05-29T09:04:04;6.40;;;2.30;;
70532;SDS011;58088;51.186;17.130;2023-05-29T09:06:31;5.60;;;1.80;;
70532;SDS011;58088;51.186;17.130;2023-05-29T09:08:57;5.00;;;2.10;;
70532;SDS011;58088;51.186;17.130;2023-05-29T09:11:23;11.70;;;7.00;;
70532;SDS011;58088;51.186;17.130;2023-05-29T09:13:51;6.00;;;2.20;;
70532;SDS011;58088;51.186;17.130;2023-05-29T09:16:18;5.60;;;2.20;;
70532;SDS011;58088;51.186;17.130;2023-05-29T09:18:44;7.70;;;2.90;;
70532;SDS011;58088;51.186;17.130;2023-05-29T09:21:26;5.90;;;2.30;;
70532;SDS011;58088;51.186;17.130;2023-05-29T09:23:54;8.50;;;2.30;;
70532;SDS011;58088;51.186;17.130;2023-05-29T09:26:28;6.30;;;2.10;;
70532;SDS011;58088;51.186;17.130;2023-05-29T09:28:55;5.20;;;2.00;;
70532;SDS011;58088;51.186;17.130;2023-05-29T09:31:21;5.90;;;2.20;;
70532;SDS011;58088;51.186;17.130;2023-05-29T09:33:48;5.20;;;1.80;;
70532;SDS011;58088;51.186;17.130;2023-05-29T09:36:22;7.90;;;2.10;;
70532;SDS011;58088;51.186;17.130;2023-05-29T09:38:49;6.10;;;2.20;;
70532;SDS011;58088;51.186;17.130;2023-05-29T09:41:23;5.60;;;2.40;;
70532;SDS011;58088;51.186;17.130;2023-05-29T09:43:50;4.90;;;1.80;;
70532;SDS011;58088;51.186;17.130;2023-05-29T09:46:16;5.80;;;2.00;;
70532;SDS011;58088;51.186;17.130;2023-05-29T09:48:46;4.90;;;1.80;;
70532;SDS011;58088;51.186;17.130;2023-05-29T09:51:23;5.30;;;2.00;;
70532;SDS011;58088;51.186;17.130;2023-05-29T09:53:50;6.20;;;2.00;;
70532;SDS011;58088;51.186;17.130;2023-05-29T09:56:17;6.20;;;2.00;;
70532;SDS011;58088;51.186;17.130;2023-05-29T09:58:44;4.60;;;1.70;;
70532;SDS011;58088;51.186;17.130;2023-05-29T10:01:13;4.50;;;1.60;;
70532;SDS011;58088;51.186;17.130;2023-05-29T10:03:42;6.10;;;1.70;;
70532;SDS011;58088;51.186;17.130;2023-05-29T10:06:16;5.20;;;1.50;;
70532;SDS011;58088;51.186;17.130;2023-05-29T10:08:46;5.50;;;1.80;;
70532;SDS011;58088;51.186;17.130;2023-05-29T10:11:21;7.80;;;2.50;;
70532;SDS011;58088;51.186;17.130;2023-05-29T10:13:52;6.10;;;2.00;;
70532;SDS011;58088;51.186;17.130;2023-05-29T10:16:21;5.20;;;1.80;;
70532;SDS011;58088;51.186;17.130;2023-05-29T10:18:56;4.30;;;1.90;;
70532;SDS011;58088;51.186;17.130;2023-05-29T10:21:27;5.00;;;1.90;;
70532;SDS011;58088;51.186;17.130;2023-05-29T10:23:54;4.80;;;2.00;;
70532;SDS011;58088;51.186;17.130;2023-05-29T10:26:27;5.60;;;2.00;;
70532;SDS011;58088;51.186;17.130;2023-05-29T10:32:38;5.20;;;1.70;;
70532;SDS011;58088;51.186;17.130;2023-05-29T10:35:27;3.40;;;1.50;;
70532;SDS011;58088;51.186;17.130;2023-05-29T10:38:12;4.00;;;1.60;;
70532;SDS011;58088;51.186;17.130;2023-05-29T10:40:40;6.50;;;2.30;;
70532;SDS011;58088;51.186;17.130;2023-05-29T10:43:06;6.40;;;1.70;;
70532;SDS011;58088;51.186;17.130;2023-05-29T10:50:41;7.10;;;1.90;;
70532;SDS011;58088;51.186;17.130;2023-05-29T10:53:23;4.70;;;1.80;;
70532;SDS011;58088;51.186;17.130;2023-05-29T10:55:52;5.20;;;1.80;;
70532;SDS011;58088;51.186;17.130;2023-05-29T10:58:21;4.90;;;1.80;;
70532;SDS011;58088;51.186;17.130;2023-05-29T11:00:52;6.00;;;1.70;;
70532;SDS011;58088;51.186;17.130;2023-05-29T11:03:29;4.00;;;1.40;;
70532;SDS011;58088;51.186;17.130;2023-05-29T11:11:15;6.00;;;1.90;;
70532;SDS011;58088;51.186;17.130;2023-05-29T11:13:56;5.10;;;2.00;;
70532;SDS011;58088;51.186;17.130;2023-05-29T11:18:55;6.30;;;2.00;;
70532;SDS011;58088;51.186;17.130;2023-05-29T11:24:26;4.20;;;1.80;;
70532;SDS011;58088;51.186;17.130;2023-05-29T11:26:56;5.10;;;1.90;;
70532;SDS011;58088;51.186;17.130;2023-05-29T11:29:26;4.30;;;2.10;;
70532;SDS011;58088;51.186;17.130;2023-05-29T11:31:58;4.10;;;1.80;;
70532;SDS011;58088;51.186;17.130;2023-05-29T11:34:39;4.80;;;1.70;;
70532;SDS011;58088;51.186;17.130;2023-05-29T11:37:07;4.30;;;1.70;;
70532;SDS011;58088;51.186;17.130;2023-05-29T11:39:37;6.70;;;2.20;;
70532;SDS011;58088;51.186;17.130;2023-05-29T11:42:04;7.20;;;2.30;;
70532;SDS011;58088;51.186;17.130;2023-05-29T11:44:31;5.20;;;1.80;;
70532;SDS011;58088;51.186;17.130;2023-05-29T11:47:01;5.80;;;2.10;;
70532;SDS011;58088;51.186;17.130;2023-05-29T11:49:31;4.80;;;2.00;;
70532;SDS011;58088;51.186;17.130;2023-05-29T11:52:09;5.00;;;2.00;;
70532;SDS011;58088;51.186;17.130;2023-05-29T11:54:37;5.00;;;2.00;;
70532;SDS011;58088;51.186;17.130;2023-05-29T11:57:03;5.50;;;1.80;;
70532;SDS011;58088;51.186;17.130;2023-05-29T11:59:33;6.90;;;2.00;;
70532;SDS011;58088;51.186;17.130;2023-05-29T12:02:02;4.40;;;1.80;;
70532;SDS011;58088;51.186;17.130;2023-05-29T12:04:29;7.90;;;2.20;;
70532;SDS011;58088;51.186;17.130;2023-05-29T12:06:55;4.70;;;2.10;;
70532;SDS011;58088;51.186;17.130;2023-05-29T12:09:29;5.10;;;2.00;;
70532;SDS011;58088;51.186;17.130;2023-05-29T12:12:05;7.40;;;2.20;;
70532;SDS011;58088;51.186;17.130;2023-05-29T12:14:32;6.10;;;2.20;;
70532;SDS011;58088;51.186;17.130;2023-05-29T12:16:59;6.20;;;2.00;;
70532;SDS011;58088;51.186;17.130;2023-05-29T12:19:25;4.90;;;2.10;;
70532;SDS011;58088;51.186;17.130;2023-05-29T12:21:51;5.80;;;2.00;;
70532;SDS011;58088;51.186;17.130;2023-05-29T12:24:19;4.40;;;1.80;;
70532;SDS011;58088;51.186;17.130;2023-05-29T12:26:45;5.10;;;2.20;;
70532;SDS011;58088;51.186;17.130;2023-05-29T12:29:15;5.40;;;2.00;;
70532;SDS011;58088;51.186;17.130;2023-05-29T12:31:41;4.70;;;1.70;;
70532;SDS011;58088;51.186;17.130;2023-05-29T12:34:08;5.50;;;2.50;;
70532;SDS011;58088;51.186;17.130;2023-05-29T12:36:40;5.50;;;2.20;;
70532;SDS011;58088;51.186;17.130;2023-05-29T12:39:07;5.40;;;2.20;;
70532;SDS011;58088;51.186;17.130;2023-05-29T12:41:37;5.10;;;1.80;;
70532;SDS011;58088;51.186;17.130;2023-05-29T12:44:05;5.00;;;1.70;;
70532;SDS011;58088;51.186;17.130;2023-05-29T12:46:40;5.10;;;1.90;;
70532;SDS011;58088;51.186;17.130;2023-05-29T12:49:17;5.70;;;2.10;;
70532;SDS011;58088;51.186;17.130;2023-05-29T12:51:49;4.70;;;2.20;;
70532;SDS011;58088;51.186;17.130;2023-05-29T12:54:16;6.00;;;1.90;;
70532;SDS011;58088;51.186;17.130;2023-05-29T12:56:43;7.20;;;2.20;;
70532;SDS011;58088;51.186;17.130;2023-05-29T12:59:11;4.60;;;1.90;;
70532;SDS011;58088;51.186;17.130;2023-05-29T13:01:38;6.30;;;2.10;;
70532;SDS011;58088;51.186;17.130;2023-05-29T13:04:05;5.50;;;2.60;;
70532;SDS011;58088;51.186;17.130;2023-05-29T13:06:37;6.20;;;2.00;;
70532;SDS011;58088;51.186;17.130;2023-05-29T13:09:04;5.00;;;1.70;;
70532;SDS011;58088;51.186;17.130;2023-05-29T13:11:34;4.90;;;1.90;;
70532;SDS011;58088;51.186;17.130;2023-05-29T13:14:00;6.30;;;2.20;;
70532;SDS011;58088;51.186;17.130;2023-05-29T13:16:27;7.70;;;2.30;;
70532;SDS011;58088;51.186;17.130;2023-05-29T13:18:53;5.70;;;2.20;;
70532;SDS011;58088;51.186;17.130;2023-05-29T13:21:20;6.30;;;2.10;;
70532;SDS011;58088;51.186;17.130;2023-05-29T13:23:46;6.00;;;2.00;;
70532;SDS011;58088;51.186;17.130;2023-05-29T13:26:12;7.10;;;2.40;;
70532;SDS011;58088;51.186;17.130;2023-05-29T13:28:38;6.60;;;2.60;;
70532;SDS011;58088;51.186;17.130;2023-05-29T13:31:04;6.00;;;2.30;;
70532;SDS011;58088;51.186;17.130;2023-05-29T13:33:30;4.20;;;2.00;;
70532;SDS011;58088;51.186;17.130;2023-05-29T13:35:57;7.50;;;1.90;;
70532;SDS011;58088;51.186;17.130;2023-05-29T13:38:23;4.80;;;2.00;;
70532;SDS011;58088;51.186;17.130;2023-05-29T13:40:49;4.10;;;1.90;;
70532;SDS011;58088;51.186;17.130;2023-05-29T13:43:15;5.10;;;1.80;;
70532;SDS011;58088;51.186;17.130;2023-05-29T13:45:41;9.80;;;2.50;;
70532;SDS011;58088;51.186;17.130;2023-05-29T13:48:08;5.20;;;2.20;;
70532;SDS011;58088;51.186;17.130;2023-05-29T13:50:34;5.30;;;2.00;;
70532;SDS011;58088;51.186;17.130;2023-05-29T13:53:00;4.10;;;1.80;;
70532;SDS011;58088;51.186;17.130;2023-05-29T13:55:26;7.80;;;1.90;;
70532;SDS011;58088;51.186;17.130;2023-05-29T13:57:52;5.40;;;1.70;;
70532;SDS011;58088;51.186;17.130;2023-05-29T14:00:19;5.80;;;1.80;;
70532;SDS011;58088;51.186;17.130;2023-05-29T14:02:45;7.30;;;2.20;;
70532;SDS011;58088;51.186;17.130;2023-05-29T14:05:11;4.50;;;2.00;;
70532;SDS011;58088;51.186;17.130;2023-05-29T14:07:37;3.70;;;1.90;;
70532;SDS011;58088;51.186;17.130;2023-05-29T14:10:04;5.70;;;2.20;;
70532;SDS011;58088;51.186;17.130;2023-05-29T14:12:31;5.20;;;2.10;;
70532;SDS011;58088;51.186;17.130;2023-05-29T14:14:57;4.40;;;1.90;;
70532;SDS011;58088;51.186;17.130;2023-05-29T14:17:24;6.20;;;2.10;;
70532;SDS011;58088;51.186;17.130;2023-05-29T14:19:51;5.00;;;2.10;;
70532;SDS011;58088;51.186;17.130;2023-05-29T14:22:18;4.50;;;1.90;;
70532;SDS011;58088;51.186;17.130;2023-05-29T14:24:44;5.50;;;2.10;;
70532;SDS011;58088;51.186;17.130;2023-05-29T14:27:10;4.10;;;1.90;;
70532;SDS011;58088;51.186;17.130;2023-05-29T14:29:36;5.50;;;2.00;;
70532;SDS011;58088;51.186;17.130;2023-05-29T14:32:02;4.60;;;2.20;;
70532;SDS011;58088;51.186;17.130;2023-05-29T14:34:29;4.50;;;2.00;;
70532;SDS011;58088;51.186;17.130;2023-05-29T14:36:55;6.70;;;2.20;;
70532;SDS011;58088;51.186;17.130;2023-05-29T14:39:24;6.10;;;2.30;;
70532;SDS011;58088;51.186;17.130;2023-05-29T14:41:51;4.90;;;2.00;;
70532;SDS011;58088;51.186;17.130;2023-05-29T14:44:17;5.50;;;2.30;;
70532;SDS011;58088;51.186;17.130;2023-05-29T14:46:43;5.00;;;2.30;;
70532;SDS011;58088;51.186;17.130;2023-05-29T14:49:09;5.40;;;2.10;;
70532;SDS011;58088;51.186;17.130;2023-05-29T14:51:35;5.70;;;2.20;;
70532;SDS011;58088;51.186;17.130;2023-05-29T14:54:02;5.00;;;2.20;;
70532;SDS011;58088;51.186;17.130;2023-05-29T14:56:28;7.10;;;2.30;;
70532;SDS011;58088;51.186;17.130;2023-05-29T14:58:54;6.70;;;2.30;;
70532;SDS011;58088;51.186;17.130;2023-05-29T15:01:20;5.80;;;2.40;;
70532;SDS011;58088;51.186;17.130;2023-05-29T15:03:47;5.40;;;2.40;;
70532;SDS011;58088;51.186;17.130;2023-05-29T15:06:13;5.60;;;2.30;;
70532;SDS011;58088;51.186;17.130;2023-05-29T15:08:40;6.50;;;2.70;;
70532;SDS011;58088;51.186;17.130;2023-05-29T15:11:09;5.20;;;2.30;;